createdAt,value
2018-03-02T00:02:11.546Z,-3.03
2018-03-02T00:04:37.446Z,-3.06
2018-03-02T00:07:03.309Z,-2.96
2018-03-02T00:09:29.211Z,-2.75
2018-03-02T00:11:55.051Z,-2.68
2018-03-02T00:14:20.958Z,-2.77
2018-03-02T00:16:46.792Z,-2.91
2018-03-02T00:19:12.672Z,-2.89
2018-03-02T00:21:38.501Z,-2.94
2018-03-02T00:24:04.418Z,-2.80
2018-03-02T00:26:30.342Z,-2.62
2018-03-02T00:28:56.212Z,-2.61
2018-03-02T00:31:22.066Z,-2.69
2018-03-02T00:33:49.000Z,-2.73
2018-03-02T00:36:14.871Z,-2.85
2018-03-02T00:38:43.695Z,-2.93
2018-03-02T00:41:09.576Z,-2.93
2018-03-02T00:43:39.123Z,-2.82
2018-03-02T00:46:05.007Z,-2.76
2018-03-02T00:48:34.667Z,-3.09
2018-03-02T00:51:00.562Z,-3.09
2018-03-02T00:53:28.038Z,-3.48
2018-03-02T00:55:53.926Z,-3.45
2018-03-02T00:58:19.795Z,-3.62
2018-03-02T01:00:45.652Z,-3.70
2018-03-02T01:03:11.520Z,-3.69
2018-03-02T01:05:41.260Z,-3.66
2018-03-02T01:08:07.169Z,-3.46
2018-03-02T01:10:34.765Z,-3.47
2018-03-02T01:13:00.666Z,-3.45
2018-03-02T01:15:29.892Z,-3.32
2018-03-02T01:17:55.747Z,-3.31
2018-03-02T01:20:25.074Z,-3.40
2018-03-02T01:22:50.984Z,-3.35
2018-03-02T01:25:18.496Z,-3.26
2018-03-02T01:27:44.353Z,-3.41
2018-03-02T01:30:14.287Z,-3.54
2018-03-02T01:32:40.135Z,-3.48
2018-03-02T01:35:06.044Z,-3.65
2018-03-02T01:37:35.042Z,-3.62
2018-03-02T01:40:00.898Z,-3.56
2018-03-02T01:42:26.778Z,-3.55
2018-03-02T01:44:52.654Z,-3.62
2018-03-02T01:47:19.536Z,-3.73
2018-03-02T01:49:45.396Z,-3.74
2018-03-02T01:52:14.006Z,-3.69
2018-03-02T01:54:39.883Z,-3.48
2018-03-02T01:59:36.612Z,-3.86
2018-03-02T02:02:03.909Z,-3.72
2018-03-02T02:04:29.760Z,-3.82
2018-03-02T02:06:58.641Z,-3.66
2018-03-02T02:09:24.534Z,-3.66
2018-03-02T02:11:50.446Z,-3.74
2018-03-02T02:14:16.294Z,-3.95
2018-03-02T02:16:42.133Z,-3.81
2018-03-02T02:19:12.000Z,-3.66
2018-03-02T02:21:37.861Z,-3.49
2018-03-02T02:24:06.899Z,-3.65
2018-03-02T02:26:32.786Z,-3.79
2018-03-02T02:29:00.065Z,-3.76
2018-03-02T02:31:25.933Z,-3.55
2018-03-02T02:33:55.533Z,-3.59
2018-03-02T02:36:21.386Z,-3.46
2018-03-02T02:38:48.979Z,-3.66
2018-03-02T02:41:14.828Z,-3.82
2018-03-02T02:46:11.426Z,-3.86
2018-03-02T02:48:37.288Z,-3.99
2018-03-02T02:51:03.146Z,-3.78
2018-03-02T02:53:29.036Z,-3.75
2018-03-02T02:55:56.130Z,-3.57
2018-03-02T02:58:21.984Z,-3.78
2018-03-02T03:00:51.034Z,-3.69
2018-03-02T03:03:16.908Z,-3.66
2018-03-02T03:05:46.135Z,-3.64
2018-03-02T03:08:11.998Z,-3.83
2018-03-02T03:10:41.285Z,-3.86
2018-03-02T03:13:07.122Z,-3.93
2018-03-02T03:15:36.191Z,-3.97
2018-03-02T03:18:02.047Z,-3.79
2018-03-02T03:22:59.012Z,-3.74
2018-03-02T03:25:24.839Z,-3.92
2018-03-02T03:27:50.700Z,-3.90
2018-03-02T03:30:16.624Z,-3.78
2018-03-02T03:32:42.519Z,-3.87
2018-03-02T03:35:08.388Z,-3.74
2018-03-02T03:37:35.757Z,-3.75
2018-03-02T03:40:01.648Z,-3.93
2018-03-02T03:42:31.125Z,-4.02
2018-03-02T03:44:56.996Z,-4.33
2018-03-02T03:47:26.491Z,-4.40
2018-03-02T03:49:52.340Z,-4.46
2018-03-02T03:52:19.918Z,-4.46
2018-03-02T03:54:45.799Z,-4.48
2018-03-02T03:57:15.222Z,-4.54
2018-03-02T03:59:41.081Z,-4.52
2018-03-02T04:02:07.109Z,-4.38
2018-03-02T04:04:32.978Z,-4.18
2018-03-02T04:06:58.849Z,-4.02
2018-03-02T04:09:27.913Z,-3.99
2018-03-02T04:11:53.780Z,-3.94
2018-03-02T04:14:22.709Z,-3.97
2018-03-02T04:16:48.598Z,-3.96
2018-03-02T04:19:15.565Z,-3.87
2018-03-02T04:21:41.437Z,-3.73
2018-03-02T04:24:10.720Z,-3.74
2018-03-02T04:26:36.612Z,-3.78
2018-03-02T04:29:06.079Z,-3.87
2018-03-02T04:31:31.985Z,-3.80
2018-03-02T04:33:59.828Z,-3.92
2018-03-02T04:36:25.686Z,-4.01
2018-03-02T04:38:51.523Z,-3.92
2018-03-02T04:41:17.448Z,-3.98
2018-03-02T04:43:43.341Z,-3.95
2018-03-02T04:46:12.922Z,-3.97
2018-03-02T04:48:38.812Z,-4.10
2018-03-02T04:51:06.199Z,-3.99
2018-03-02T04:53:32.015Z,-4.17
2018-03-02T04:56:01.242Z,-4.26
2018-03-02T04:58:27.077Z,-4.27
2018-03-02T05:00:56.039Z,-4.53
2018-03-02T05:03:21.900Z,-4.72
2018-03-02T05:05:51.616Z,-4.55
2018-03-02T05:08:17.470Z,-4.48
2018-03-02T05:10:45.317Z,-4.52
2018-03-02T05:13:11.198Z,-4.54
2018-03-02T05:15:37.076Z,-4.61
2018-03-02T05:18:02.955Z,-4.92
2018-03-02T05:20:28.829Z,-4.98
2018-03-02T05:22:57.739Z,-4.68
2018-03-02T05:25:23.607Z,-4.90
2018-03-02T05:27:52.540Z,-5.03
2018-03-02T05:30:18.408Z,-4.96
2018-03-02T05:32:47.763Z,-5.10
2018-03-02T05:35:13.640Z,-5.10
2018-03-02T05:37:41.416Z,-5.35
2018-03-02T05:40:07.297Z,-5.32
2018-03-02T05:42:36.843Z,-5.22
2018-03-02T05:45:02.705Z,-5.20
2018-03-02T05:47:30.202Z,-5.16
2018-03-02T05:49:56.081Z,-5.15
2018-03-02T05:52:21.929Z,-5.01
2018-03-02T05:54:47.823Z,-5.00
2018-03-02T05:57:13.697Z,-5.22
2018-03-02T05:59:42.889Z,-5.17
2018-03-02T06:02:08.753Z,-5.17
2018-03-02T06:04:38.171Z,-5.17
2018-03-02T06:07:04.055Z,-5.24
2018-03-02T06:09:31.906Z,-5.37
2018-03-02T06:11:57.823Z,-5.37
2018-03-02T06:14:27.412Z,-5.34
2018-03-02T06:16:53.264Z,-5.41
2018-03-02T06:19:22.214Z,-5.27
2018-03-02T06:21:48.138Z,-5.26
2018-03-02T06:24:15.495Z,-5.50
2018-03-02T06:26:41.348Z,-5.50
2018-03-02T06:29:07.209Z,-5.38
2018-03-02T06:31:33.063Z,-5.24
2018-03-02T06:33:58.916Z,-5.15
2018-03-02T06:36:27.875Z,-5.19
2018-03-02T06:38:53.745Z,-5.39
2018-03-02T06:41:22.944Z,-5.39
2018-03-02T06:43:48.850Z,-5.42
2018-03-02T06:46:18.447Z,-5.48
2018-03-02T06:48:44.309Z,-5.31
2018-03-02T06:51:11.785Z,-5.19
2018-03-02T06:53:37.663Z,-5.05
2018-03-02T06:56:06.779Z,-5.02
2018-03-02T06:58:32.618Z,-4.88
2018-03-02T07:01:01.915Z,-4.75
2018-03-02T07:03:27.766Z,-4.81
2018-03-02T07:05:53.632Z,-4.95
2018-03-02T07:08:19.490Z,-4.86
2018-03-02T07:10:45.364Z,-4.79
2018-03-02T07:13:14.443Z,-4.71
2018-03-02T07:15:40.304Z,-4.63
2018-03-02T07:18:07.869Z,-4.70
2018-03-02T07:20:33.725Z,-4.77
2018-03-02T07:23:03.011Z,-4.63
2018-03-02T07:25:28.867Z,-4.55
2018-03-02T07:27:58.574Z,-4.49
2018-03-02T07:30:24.428Z,-4.40
2018-03-02T07:32:52.307Z,-4.48
2018-03-02T07:35:18.153Z,-4.27
2018-03-02T07:37:47.631Z,-4.13
2018-03-02T07:40:13.472Z,-3.89
2018-03-02T07:42:39.345Z,-3.87
2018-03-02T07:45:05.210Z,-3.73
2018-03-02T07:47:31.047Z,-4.00
2018-03-02T07:49:58.742Z,-3.98
2018-03-02T07:52:24.582Z,-4.01
2018-03-02T07:54:54.386Z,-4.05
2018-03-02T07:57:20.343Z,-3.91
2018-03-02T07:59:47.820Z,-3.73
2018-03-02T08:02:13.676Z,-3.72
2018-03-02T08:04:43.353Z,-3.63
2018-03-02T08:07:09.192Z,-3.60
2018-03-02T08:09:36.921Z,-3.68
2018-03-02T08:12:02.782Z,-3.67
2018-03-02T08:14:31.712Z,-3.69
2018-03-02T08:16:57.611Z,-3.53
2018-03-02T08:19:23.437Z,-3.36
2018-03-02T08:21:49.310Z,-3.25
2018-03-02T08:24:15.164Z,-3.09
2018-03-02T08:26:44.409Z,-3.21
2018-03-02T08:29:10.238Z,-3.26
2018-03-02T08:31:39.236Z,-3.52
2018-03-02T08:34:05.076Z,-3.36
2018-03-02T08:36:32.779Z,-3.29
2018-03-02T08:38:58.652Z,-3.24
2018-03-02T08:41:27.383Z,-3.22
2018-03-02T08:43:53.255Z,-3.21
2018-03-02T08:46:21.826Z,-3.29
2018-03-02T08:48:47.675Z,-3.16
2018-03-02T08:53:44.392Z,-2.77
2018-03-02T08:56:10.243Z,-2.43
2018-03-02T08:58:36.097Z,-2.36
2018-03-02T09:01:01.959Z,-2.35
2018-03-02T09:03:28.632Z,-2.54
2018-03-02T09:05:54.475Z,-2.43
2018-03-02T09:10:51.121Z,-2.08
2018-03-02T09:13:18.473Z,-2.05
2018-03-02T09:15:44.315Z,-1.97
2018-03-02T09:18:13.381Z,-1.71
2018-03-02T09:20:39.244Z,-1.71
2018-03-02T09:23:08.324Z,-1.95
2018-03-02T09:25:34.171Z,-1.93
2018-03-02T09:28:03.920Z,-1.51
2018-03-02T09:30:29.791Z,-1.23
2018-03-02T09:32:55.632Z,-0.63
2018-03-02T09:35:21.464Z,-0.26
2018-03-02T09:37:47.308Z,0.41
2018-03-02T09:40:14.833Z,1.13
2018-03-02T09:42:40.691Z,1.37
2018-03-02T09:45:10.406Z,1.91
2018-03-02T09:47:36.228Z,1.52
2018-03-02T09:50:03.884Z,1.29
2018-03-02T09:52:29.749Z,1.50
2018-03-02T09:54:59.608Z,1.27
2018-03-02T09:57:25.460Z,1.11
2018-03-02T09:59:52.843Z,1.23
2018-03-02T10:02:18.749Z,1.18
2018-03-02T10:04:47.782Z,1.51
2018-03-02T10:07:13.646Z,0.74
2018-03-02T10:09:39.483Z,0.43
2018-03-02T10:12:05.341Z,0.75
2018-03-02T10:14:31.165Z,1.54
2018-03-02T10:17:00.640Z,1.73
2018-03-02T10:19:26.500Z,2.18
2018-03-02T10:21:54.271Z,1.12
2018-03-02T10:24:20.157Z,0.90
2018-03-02T10:26:49.002Z,1.27
2018-03-02T10:29:14.876Z,1.74
2018-03-02T10:31:43.603Z,1.87
2018-03-02T10:34:09.512Z,2.02
2018-03-02T10:36:38.804Z,2.23
2018-03-02T10:39:04.657Z,2.25
2018-03-02T10:41:33.934Z,2.58
2018-03-02T10:43:59.769Z,2.88
2018-03-02T10:46:25.634Z,3.52
2018-03-02T10:48:53.052Z,3.50
2018-03-02T10:51:18.955Z,2.27
2018-03-02T10:53:44.795Z,1.44
2018-03-02T10:56:10.665Z,1.50
2018-03-02T10:58:39.310Z,1.13
2018-03-02T11:01:10.985Z,1.73
2018-03-02T11:03:37.842Z,2.02
2018-03-02T11:06:03.694Z,2.15
2018-03-02T11:08:29.554Z,2.39
2018-03-02T11:10:55.470Z,2.45
2018-03-02T11:13:24.989Z,2.85
2018-03-02T11:15:50.888Z,2.70
2018-03-02T11:18:18.135Z,3.17
2018-03-02T11:20:44.004Z,3.38
2018-03-02T11:23:09.856Z,3.53
2018-03-02T11:25:35.706Z,3.53
2018-03-02T11:28:01.563Z,3.68
2018-03-02T11:30:30.832Z,3.78
2018-03-02T11:32:56.678Z,3.80
2018-03-02T11:35:26.316Z,3.47
2018-03-02T11:37:52.175Z,3.47
2018-03-02T11:40:20.028Z,3.17
2018-03-02T11:42:45.877Z,3.17
2018-03-02T11:45:15.365Z,3.32
2018-03-02T11:47:41.272Z,2.61
2018-03-02T11:50:08.750Z,2.27
2018-03-02T11:52:34.661Z,2.55
2018-03-02T11:55:03.867Z,2.62
2018-03-02T11:57:29.752Z,2.68
2018-03-02T11:59:55.631Z,2.75
2018-03-02T12:02:21.475Z,2.99
2018-03-02T12:04:47.350Z,3.35
2018-03-02T12:07:15.163Z,3.03
2018-03-02T12:09:41.021Z,3.17
2018-03-02T12:12:10.330Z,3.32
2018-03-02T12:14:36.205Z,2.87
2018-03-02T12:17:05.542Z,3.28
2018-03-02T12:19:31.384Z,3.81
2018-03-02T12:21:59.274Z,3.93
2018-03-02T12:24:25.113Z,3.95
2018-03-02T12:29:21.971Z,3.64
2018-03-02T12:31:48.802Z,2.72
2018-03-02T12:34:14.673Z,2.50
2018-03-02T12:36:40.589Z,2.25
2018-03-02T12:39:06.416Z,1.97
2018-03-02T12:41:32.284Z,2.43
2018-03-02T12:44:01.305Z,2.44
2018-03-02T12:46:27.166Z,2.59
2018-03-02T12:48:58.003Z,2.80
2018-03-02T12:51:23.901Z,2.99
2018-03-02T12:53:49.823Z,3.07
2018-03-02T12:56:15.648Z,3.11
2018-03-02T13:01:12.530Z,3.31
2018-03-02T13:03:40.195Z,3.33
2018-03-02T13:06:06.175Z,3.28
2018-03-02T13:08:35.847Z,3.28
2018-03-02T13:11:01.701Z,3.33
2018-03-02T13:13:27.586Z,3.37
2018-03-02T13:15:53.443Z,3.37
2018-03-02T13:18:31.729Z,3.31
2018-03-02T13:20:57.595Z,3.08
2018-03-02T13:23:23.482Z,2.75
2018-03-02T13:25:49.353Z,2.54
2018-03-02T13:28:27.531Z,2.64
2018-03-02T13:30:53.402Z,2.70
2018-03-02T13:33:31.753Z,2.75
2018-03-02T13:35:57.597Z,2.76
2018-03-02T13:38:23.476Z,2.48
2018-03-02T13:43:48.156Z,2.36
2018-03-02T13:46:14.090Z,2.25
2018-03-02T13:48:54.006Z,2.36
2018-03-02T13:51:19.998Z,2.71
2018-03-02T13:53:48.856Z,2.92
2018-03-02T13:56:27.041Z,2.99
2018-03-02T13:58:52.888Z,3.26
2018-03-02T14:01:18.737Z,3.23
2018-03-02T14:03:56.928Z,3.30
2018-03-02T14:06:22.793Z,3.11
2018-03-02T14:08:48.627Z,3.22
2018-03-02T14:11:14.501Z,3.30
2018-03-02T14:13:40.360Z,3.17
2018-03-02T14:16:06.290Z,3.21
2018-03-02T14:18:32.183Z,3.36
2018-03-02T14:20:58.037Z,3.44
2018-03-02T14:23:23.929Z,3.28
2018-03-02T14:25:49.816Z,3.28
2018-03-02T14:28:15.687Z,3.38
2018-03-02T14:30:41.535Z,3.43
2018-03-02T14:33:07.406Z,3.32
2018-03-02T14:35:33.269Z,3.30
2018-03-02T14:38:00.665Z,3.45
2018-03-02T14:40:26.509Z,3.48
2018-03-02T14:42:52.375Z,3.53
2018-03-02T14:45:18.301Z,3.48
2018-03-02T14:47:44.169Z,3.39
2018-03-02T14:50:13.251Z,3.42
2018-03-02T14:52:39.110Z,3.47
2018-03-02T14:55:07.991Z,3.45
2018-03-02T14:57:33.878Z,3.52
2018-03-02T15:00:01.461Z,3.39
2018-03-02T15:02:27.348Z,3.16
2018-03-02T15:04:58.388Z,2.90
2018-03-02T15:07:24.243Z,2.78
2018-03-02T15:09:51.440Z,2.79
2018-03-02T15:12:17.286Z,2.74
2018-03-02T15:14:46.278Z,2.63
2018-03-02T15:17:12.131Z,2.49
2018-03-02T15:19:38.003Z,2.61
2018-03-02T15:22:03.887Z,2.64
2018-03-02T15:24:29.759Z,2.72
2018-03-02T15:26:56.985Z,2.76
2018-03-02T15:29:22.845Z,2.66
2018-03-02T15:34:19.572Z,2.32
2018-03-02T15:36:47.294Z,2.39
2018-03-02T15:39:13.173Z,2.43
2018-03-02T15:41:42.741Z,2.42
2018-03-02T15:44:08.625Z,2.54
2018-03-02T15:46:37.568Z,2.61
2018-03-02T15:49:03.430Z,2.67
2018-03-02T15:51:30.875Z,2.66
2018-03-02T15:53:56.745Z,2.68
2018-03-02T15:56:22.624Z,2.68
2018-03-02T15:58:48.485Z,2.67
2018-03-02T16:01:14.317Z,2.66
2018-03-02T16:03:43.183Z,2.67
2018-03-02T16:06:09.094Z,2.61
2018-03-02T16:08:38.175Z,2.62
2018-03-02T16:11:04.053Z,2.59
2018-03-02T16:13:33.574Z,2.61
2018-03-02T16:15:59.435Z,2.60
2018-03-02T16:21:03.109Z,2.61
2018-03-02T16:23:29.028Z,2.55
2018-03-02T16:25:54.896Z,2.54
2018-03-02T16:28:20.765Z,2.60
2018-03-02T16:30:46.632Z,2.58
2018-03-02T16:33:12.505Z,2.49
2018-03-02T16:35:38.378Z,2.42
2018-03-02T16:38:04.252Z,2.38
2018-03-02T16:40:30.130Z,2.32
2018-03-02T16:42:55.965Z,2.24
2018-03-02T16:45:22.434Z,2.14
2018-03-02T16:47:48.328Z,2.09
2018-03-02T16:50:16.997Z,2.06
2018-03-02T16:52:42.896Z,2.03
2018-03-02T16:57:39.601Z,1.93
2018-03-02T17:00:06.491Z,1.89
2018-03-02T17:02:32.353Z,1.89
2018-03-02T17:07:29.248Z,1.76
2018-03-02T17:09:55.113Z,1.68
2018-03-02T17:12:20.981Z,1.64
2018-03-02T17:14:46.843Z,1.63
2018-03-02T17:17:13.741Z,1.58
2018-03-02T17:19:39.595Z,1.59
2018-03-02T17:22:09.001Z,1.49
2018-03-02T17:24:34.837Z,1.53
2018-03-02T17:27:03.820Z,1.45
2018-03-02T17:29:29.688Z,1.40
2018-03-02T17:31:58.883Z,1.43
2018-03-02T17:34:24.750Z,1.35
2018-03-02T17:36:52.264Z,1.30
2018-03-02T17:39:18.170Z,1.28
2018-03-02T17:41:47.091Z,1.18
2018-03-02T17:44:12.989Z,1.28
2018-03-02T17:46:38.876Z,1.31
2018-03-02T17:49:05.080Z,1.27
2018-03-02T17:51:30.965Z,1.34
2018-03-02T17:53:58.757Z,1.34
2018-03-02T17:59:15.205Z,1.40
2018-03-02T18:01:41.074Z,1.41
2018-03-02T18:04:06.941Z,1.37
2018-03-02T18:06:32.903Z,1.35
2018-03-02T18:08:58.757Z,1.38
2018-03-02T18:11:24.604Z,1.38
2018-03-02T18:13:50.466Z,1.41
2018-03-02T18:16:16.313Z,1.41
2018-03-02T18:18:42.173Z,1.29
2018-03-02T18:21:08.045Z,1.34
2018-03-02T18:23:33.902Z,1.30
2018-03-02T18:25:59.728Z,1.21
2018-03-02T18:28:25.581Z,1.16
2018-03-02T18:30:51.444Z,1.16
2018-03-02T18:33:17.383Z,1.17
2018-03-02T18:35:43.234Z,1.18
2018-03-02T18:38:09.154Z,1.05
2018-03-02T18:40:35.035Z,0.83
2018-03-02T18:43:00.937Z,0.87
2018-03-02T18:45:27.959Z,0.87
2018-03-02T18:47:53.856Z,0.84
2018-03-02T18:50:22.283Z,0.71
2018-03-02T18:52:48.146Z,0.62
2018-03-02T18:55:16.799Z,0.50
2018-03-02T18:57:42.694Z,0.56
2018-03-02T19:00:08.557Z,0.66
2018-03-02T19:02:34.395Z,0.43
2018-03-02T19:05:00.271Z,-0.04
2018-03-02T19:07:29.497Z,-0.21
2018-03-02T19:12:23.492Z,-0.02
2018-03-02T19:14:49.324Z,0.18
2018-03-02T19:19:45.942Z,0.28
2018-03-02T19:22:13.284Z,0.25
2018-03-02T19:24:39.130Z,0.37
2018-03-02T19:27:08.035Z,0.41
2018-03-02T19:29:33.966Z,0.39
2018-03-02T19:32:03.083Z,0.37
2018-03-02T19:34:29.035Z,0.43
2018-03-02T19:36:55.258Z,0.48
2018-03-02T19:39:21.391Z,0.23
2018-03-02T19:41:47.531Z,0.38
2018-03-02T19:44:15.317Z,0.27
2018-03-02T19:46:41.442Z,0.28
2018-03-02T19:49:13.742Z,0.28
2018-03-02T19:51:39.794Z,-0.05
2018-03-02T19:54:06.076Z,-0.23
2018-03-02T19:56:32.040Z,-0.44
2018-03-02T19:58:58.994Z,-0.43
2018-03-02T20:01:24.928Z,-0.65
2018-03-02T20:03:54.044Z,-0.40
2018-03-02T20:06:19.967Z,-0.35
2018-03-02T20:08:49.714Z,-0.32
2018-03-02T20:11:15.564Z,-0.42
2018-03-02T20:13:41.464Z,-0.65
2018-03-02T20:16:07.405Z,-0.52
2018-03-02T20:18:33.294Z,-0.51
2018-03-02T20:21:00.177Z,-0.51
2018-03-02T20:23:26.047Z,-0.83
2018-03-02T20:25:55.833Z,-0.55
2018-03-02T20:28:21.679Z,-0.63
2018-03-02T20:30:49.130Z,-0.50
2018-03-02T20:33:14.988Z,-0.56
2018-03-02T20:35:44.914Z,-0.42
2018-03-02T20:38:10.804Z,-0.44
2018-03-02T20:40:40.057Z,-0.79
2018-03-02T20:43:05.935Z,-0.74
2018-03-02T20:45:33.368Z,-0.90
2018-03-02T20:47:59.225Z,-0.71
2018-03-02T20:50:25.059Z,-0.46
2018-03-02T20:52:50.925Z,-0.32
2018-03-02T20:55:16.777Z,-0.35
2018-03-02T20:57:46.002Z,-0.15
2018-03-02T21:00:11.857Z,-0.09
2018-03-02T21:02:41.332Z,-0.02
2018-03-02T21:05:07.196Z,0.03
2018-03-02T21:07:34.591Z,-0.15
2018-03-02T21:10:00.429Z,-0.25
2018-03-02T21:12:29.101Z,-0.19
2018-03-02T21:14:54.958Z,-0.21
2018-03-02T21:17:23.784Z,-0.13
2018-03-02T21:19:49.636Z,-0.03
2018-03-02T21:22:18.364Z,-0.12
2018-03-02T21:24:44.193Z,-0.07
2018-03-02T21:27:10.110Z,0.07
2018-03-02T21:29:35.945Z,0.02
2018-03-02T21:32:01.988Z,0.17
2018-03-02T22:14:27.921Z,0.32
2018-03-02T22:16:53.800Z,0.29
2018-03-02T22:19:20.739Z,0.39
2018-03-02T22:21:46.722Z,0.24
2018-03-02T22:24:12.630Z,0.03
2018-03-02T22:26:38.499Z,0.16
2018-03-02T22:29:04.406Z,0.25
2018-03-02T22:31:30.297Z,0.37
2018-03-02T22:33:57.268Z,0.47
2018-03-02T22:36:23.165Z,0.43
2018-03-02T22:38:49.123Z,0.44
2018-03-02T22:41:15.028Z,0.39
2018-03-02T22:43:40.917Z,0.43
2018-03-02T22:46:06.772Z,0.49
2018-03-02T22:48:32.650Z,0.57
2018-03-02T22:50:58.550Z,0.59
2018-03-02T22:53:24.410Z,0.63
2018-03-02T22:55:50.291Z,0.62
2018-03-02T22:58:16.154Z,0.64
2018-03-02T23:00:42.048Z,0.60
2018-03-02T23:03:07.955Z,0.64
2018-03-02T23:05:33.823Z,0.63
2018-03-02T23:07:59.714Z,0.63
2018-03-02T23:10:25.641Z,0.57
2018-03-02T23:12:51.526Z,0.56
2018-03-02T23:15:17.440Z,0.51
2018-03-02T23:17:43.290Z,0.57
2018-03-02T23:20:09.154Z,0.60
2018-03-02T23:22:35.051Z,0.62
2018-03-02T23:25:00.914Z,0.64
2018-03-02T23:27:26.794Z,0.66
2018-03-02T23:29:53.317Z,0.64
2018-03-02T23:32:19.184Z,0.65
2018-03-02T23:34:45.054Z,0.61
2018-03-02T23:37:10.939Z,0.59
2018-03-02T23:39:36.819Z,0.58
2018-03-02T23:42:02.724Z,0.59
2018-03-02T23:44:28.596Z,0.53
2018-03-02T23:46:54.489Z,0.48
2018-03-02T23:49:20.408Z,0.42
2018-03-02T23:51:46.262Z,0.41
2018-03-02T23:54:12.180Z,0.40
2018-03-02T23:56:38.052Z,0.36
2018-03-02T23:59:03.922Z,0.35
